sensor_id;sensor_type;location;lat;lon;timestamp;pressure;altitude;pressure_sealevel;temperature;humidity
55187;BME280;55457;52.002;5.464;2023-03-16T00:01:23;101550.38;;;21.91;38.17
55187;BME280;55457;52.002;5.464;2023-03-16T00:03:49;101542.47;;;21.89;38.18
55187;BME280;55457;52.002;5.464;2023-03-16T00:06:14;101542.47;;;21.89;38.03
55187;BME280;55457;52.002;5.464;2023-03-16T00:08:39;101537.06;;;21.89;38.33
55187;BME280;55457;52.002;5.464;2023-03-16T00:11:07;101531.63;;;21.89;37.98
55187;BME280;55457;52.002;5.464;2023-03-16T00:13:32;101531.63;;;21.89;38.10
55187;BME280;55457;52.002;5.464;2023-03-16T00:15:59;101524.56;;;21.88;37.79
55187;BME280;55457;52.002;5.464;2023-03-16T00:18:25;101531.88;;;21.87;38.04
55187;BME280;55457;52.002;5.464;2023-03-16T00:20:55;101527.25;;;21.88;37.89
55187;BME280;55457;52.002;5.464;2023-03-16T00:23:22;101520.16;;;21.87;38.06
55187;BME280;55457;52.002;5.464;2023-03-16T00:25:51;101512.03;;;21.87;37.83
55187;BME280;55457;52.002;5.464;2023-03-16T00:28:17;101515.81;;;21.86;38.04
55187;BME280;55457;52.002;5.464;2023-03-16T00:30:42;101509.56;;;21.85;37.90
55187;BME280;55457;52.002;5.464;2023-03-16T00:33:11;101509.56;;;21.85;37.98
55187;BME280;55457;52.002;5.464;2023-03-16T00:35:36;101509.56;;;21.85;37.74
55187;BME280;55457;52.002;5.464;2023-03-16T00:38:01;101496.25;;;21.84;37.86
55187;BME280;55457;52.002;5.464;2023-03-16T00:40:27;101498.94;;;21.84;37.83
55187;BME280;55457;52.002;5.464;2023-03-16T00:42:53;101496.25;;;21.84;37.83
55187;BME280;55457;52.002;5.464;2023-03-16T00:45:19;101502.47;;;21.84;37.76
55187;BME280;55457;52.002;5.464;2023-03-16T00:47:44;101495.41;;;21.83;37.71
55187;BME280;55457;52.002;5.464;2023-03-16T00:50:09;101492.91;;;21.82;37.58
55187;BME280;55457;52.002;5.464;2023-03-16T00:52:35;101497.53;;;21.81;37.63
55187;BME280;55457;52.002;5.464;2023-03-16T00:55:00;101489.16;;;21.83;37.58
55187;BME280;55457;52.002;5.464;2023-03-16T00:57:28;101482.06;;;21.82;37.78
55187;BME280;55457;52.002;5.464;2023-03-16T00:59:54;101489.38;;;21.81;37.64
55187;BME280;55457;52.002;5.464;2023-03-16T01:02:19;101475.00;;;21.81;37.48
55187;BME280;55457;52.002;5.464;2023-03-16T01:04:47;101474.16;;;21.80;37.57
55187;BME280;55457;52.002;5.464;2023-03-16T01:07:13;101461.66;;;21.79;37.34
55187;BME280;55457;52.002;5.464;2023-03-16T01:09:39;101466.28;;;21.79;37.53
55187;BME280;55457;52.002;5.464;2023-03-16T01:12:06;101452.72;;;21.79;37.50
55187;BME280;55457;52.002;5.464;2023-03-16T01:14:32;101456.25;;;21.79;37.37
55187;BME280;55457;52.002;5.464;2023-03-16T01:16:59;101454.59;;;21.78;37.61
55187;BME280;55457;52.002;5.464;2023-03-16T01:19:24;101442.09;;;21.77;37.28
55187;BME280;55457;52.002;5.464;2023-03-16T01:21:49;101442.94;;;21.78;37.55
55187;BME280;55457;52.002;5.464;2023-03-16T01:24:14;101441.84;;;21.79;37.40
55187;BME280;55457;52.002;5.464;2023-03-16T01:26:40;101441.25;;;21.77;37.34
55187;BME280;55457;52.002;5.464;2023-03-16T01:29:05;101447.53;;;21.77;37.28
55187;BME280;55457;52.002;5.464;2023-03-16T01:31:30;101441.25;;;21.77;37.30
55187;BME280;55457;52.002;5.464;2023-03-16T01:33:55;101429.81;;;21.75;37.42
55187;BME280;55457;52.002;5.464;2023-03-16T01:36:21;101431.72;;;21.74;36.92
55187;BME280;55457;52.002;5.464;2023-03-16T01:38:46;101434.19;;;21.76;37.20
55187;BME280;55457;52.002;5.464;2023-03-16T01:41:12;101427.13;;;21.75;37.09
55187;BME280;55457;52.002;5.464;2023-03-16T01:43:38;101420.03;;;21.74;37.41
55187;BME280;55457;52.002;5.464;2023-03-16T01:53:50;101420.03;;;21.74;37.28
55187;BME280;55457;52.002;5.464;2023-03-16T01:56:19;101407.56;;;21.73;37.33
55187;BME280;55457;52.002;5.464;2023-03-16T01:58:47;101397.75;;;21.72;37.14
55187;BME280;55457;52.002;5.464;2023-03-16T02:01:14;101402.13;;;21.73;37.25
55187;BME280;55457;52.002;5.464;2023-03-16T02:03:40;101400.47;;;21.72;37.24
55187;BME280;55457;52.002;5.464;2023-03-16T02:08:35;101386.91;;;21.72;37.10
55187;BME280;55457;52.002;5.464;2023-03-16T02:11:01;101387.94;;;21.71;37.05
55187;BME280;55457;52.002;5.464;2023-03-16T02:13:28;101386.06;;;21.71;37.01
55187;BME280;55457;52.002;5.464;2023-03-16T02:15:57;101383.59;;;21.70;37.03
55187;BME280;55457;52.002;5.464;2023-03-16T02:18:23;101375.47;;;21.70;37.01
55187;BME280;55457;52.002;5.464;2023-03-16T02:23:17;101367.56;;;21.68;37.00
55187;BME280;55457;52.002;5.464;2023-03-16T02:26:00;101370.03;;;21.70;37.09
55187;BME280;55457;52.002;5.464;2023-03-16T02:30:59;101366.50;;;21.69;37.17
55187;BME280;55457;52.002;5.464;2023-03-16T02:33:26;101368.41;;;21.69;37.23
55187;BME280;55457;52.002;5.464;2023-03-16T02:35:52;101361.31;;;21.68;37.12
55187;BME280;55457;52.002;5.464;2023-03-16T02:38:18;101359.69;;;21.67;37.19
55187;BME280;55457;52.002;5.464;2023-03-16T02:40:43;101366.75;;;21.68;37.02
55187;BME280;55457;52.002;5.464;2023-03-16T02:43:14;101362.41;;;21.67;36.94
55187;BME280;55457;52.002;5.464;2023-03-16T02:45:42;101365.09;;;21.67;37.10
55187;BME280;55457;52.002;5.464;2023-03-16T02:48:11;101369.69;;;21.66;37.00
55187;BME280;55457;52.002;5.464;2023-03-16T02:50:49;101365.31;;;21.65;37.14
55187;BME280;55457;52.002;5.464;2023-03-16T02:53:16;101373.25;;;21.67;37.01
55187;BME280;55457;52.002;5.464;2023-03-16T02:55:41;101376.19;;;21.65;37.21
55187;BME280;55457;52.002;5.464;2023-03-16T02:58:06;101373.47;;;21.65;37.04
55187;BME280;55457;52.002;5.464;2023-03-16T03:00:31;101372.66;;;21.65;37.27
55187;BME280;55457;52.002;5.464;2023-03-16T03:02:57;101377.00;;;21.66;37.24
55187;BME280;55457;52.002;5.464;2023-03-16T03:05:22;101377.25;;;21.64;37.06
55187;BME280;55457;52.002;5.464;2023-03-16T03:07:47;101378.06;;;21.65;37.14
55187;BME280;55457;52.002;5.464;2023-03-16T03:10:12;101373.72;;;21.63;37.06
55187;BME280;55457;52.002;5.464;2023-03-16T03:12:38;101363.94;;;21.62;37.01
55187;BME280;55457;52.002;5.464;2023-03-16T03:15:03;101363.09;;;21.62;36.95
55187;BME280;55457;52.002;5.464;2023-03-16T03:17:28;101363.94;;;21.62;37.08
55187;BME280;55457;52.002;5.464;2023-03-16T03:19:55;101365.00;;;21.61;36.96
55187;BME280;55457;52.002;5.464;2023-03-16T03:22:20;101362.28;;;21.61;37.05
55187;BME280;55457;52.002;5.464;2023-03-16T03:24:45;101353.31;;;21.61;37.02
55187;BME280;55457;52.002;5.464;2023-03-16T03:27:10;101348.72;;;21.61;36.87
55187;BME280;55457;52.002;5.464;2023-03-16T03:29:36;101347.06;;;21.60;36.80
55187;BME280;55457;52.002;5.464;2023-03-16T03:32:01;101344.34;;;21.60;37.10
55187;BME280;55457;52.002;5.464;2023-03-16T03:34:27;101346.22;;;21.60;37.02
55187;BME280;55457;52.002;5.464;2023-03-16T03:36:53;101339.97;;;21.59;37.03
55187;BME280;55457;52.002;5.464;2023-03-16T03:39:18;101339.97;;;21.59;37.10
55187;BME280;55457;52.002;5.464;2023-03-16T03:41:43;101331.84;;;21.59;36.90
55187;BME280;55457;52.002;5.464;2023-03-16T03:44:08;101330.22;;;21.58;37.11
55187;BME280;55457;52.002;5.464;2023-03-16T03:46:33;101330.22;;;21.58;36.91
55187;BME280;55457;52.002;5.464;2023-03-16T03:48:59;101334.56;;;21.59;37.09
55187;BME280;55457;52.002;5.464;2023-03-16T03:51:27;101330.22;;;21.58;36.97
55187;BME280;55457;52.002;5.464;2023-03-16T03:53:53;101332.91;;;21.58;37.04
55187;BME280;55457;52.002;5.464;2023-03-16T03:56:18;101326.06;;;21.56;36.96
55187;BME280;55457;52.002;5.464;2023-03-16T03:58:43;101332.34;;;21.56;37.08
55187;BME280;55457;52.002;5.464;2023-03-16T04:01:08;101316.06;;;21.56;36.95
55187;BME280;55457;52.002;5.464;2023-03-16T04:03:33;101322.31;;;21.57;37.01
55187;BME280;55457;52.002;5.464;2023-03-16T04:05:59;101317.13;;;21.55;36.90
55187;BME280;55457;52.002;5.464;2023-03-16T04:08:24;101311.69;;;21.55;36.97
55187;BME280;55457;52.002;5.464;2023-03-16T04:10:50;101303.56;;;21.55;37.09
55187;BME280;55457;52.002;5.464;2023-03-16T04:13:15;101308.16;;;21.55;36.82
55187;BME280;55457;52.002;5.464;2023-03-16T04:15:40;101296.50;;;21.54;37.04
55187;BME280;55457;52.002;5.464;2023-03-16T04:18:05;101301.91;;;21.54;36.96
55187;BME280;55457;52.002;5.464;2023-03-16T04:20:30;101300.28;;;21.53;37.12
55187;BME280;55457;52.002;5.464;2023-03-16T04:22:56;101302.97;;;21.53;36.90
55187;BME280;55457;52.002;5.464;2023-03-16T04:25:24;101294.03;;;21.53;37.19
55187;BME280;55457;52.002;5.464;2023-03-16T04:27:50;101292.38;;;21.52;37.20
55187;BME280;55457;52.002;5.464;2023-03-16T04:30:16;101293.19;;;21.52;36.92
55187;BME280;55457;52.002;5.464;2023-03-16T04:32:41;101290.50;;;21.52;36.90
55187;BME280;55457;52.002;5.464;2023-03-16T04:35:06;101304.06;;;21.52;37.11
55187;BME280;55457;52.002;5.464;2023-03-16T04:37:31;101286.97;;;21.52;37.00
55187;BME280;55457;52.002;5.464;2023-03-16T04:39:58;101286.97;;;21.52;36.94
55187;BME280;55457;52.002;5.464;2023-03-16T04:42:23;101296.97;;;21.51;36.81
55187;BME280;55457;52.002;5.464;2023-03-16T04:44:48;101289.88;;;21.50;36.88
55187;BME280;55457;52.002;5.464;2023-03-16T04:47:14;101284.47;;;21.50;36.91
55187;BME280;55457;52.002;5.464;2023-03-16T04:49:39;101284.47;;;21.50;37.07
55187;BME280;55457;52.002;5.464;2023-03-16T04:52:05;101282.81;;;21.49;36.85
55187;BME280;55457;52.002;5.464;2023-03-16T04:54:30;101289.88;;;21.50;36.87
55187;BME280;55457;52.002;5.464;2023-03-16T04:56:56;101280.94;;;21.50;36.98
55187;BME280;55457;52.002;5.464;2023-03-16T04:59:21;101282.81;;;21.49;36.93
55187;BME280;55457;52.002;5.464;2023-03-16T05:01:47;101281.19;;;21.48;36.94
55187;BME280;55457;52.002;5.464;2023-03-16T05:04:12;101280.38;;;21.48;36.95
55187;BME280;55457;52.002;5.464;2023-03-16T05:06:37;101283.91;;;21.48;36.95
55187;BME280;55457;52.002;5.464;2023-03-16T05:09:02;101280.38;;;21.48;36.87
55187;BME280;55457;52.002;5.464;2023-03-16T05:11:30;101290.38;;;21.47;37.05
55187;BME280;55457;52.002;5.464;2023-03-16T05:13:55;101288.75;;;21.46;37.09
55187;BME280;55457;52.002;5.464;2023-03-16T05:16:20;101284.97;;;21.47;36.74
55187;BME280;55457;52.002;5.464;2023-03-16T05:18:45;101279.78;;;21.46;36.95
55187;BME280;55457;52.002;5.464;2023-03-16T05:21:11;101277.06;;;21.46;36.92
55187;BME280;55457;52.002;5.464;2023-03-16T05:23:36;101288.75;;;21.46;37.07
55187;BME280;55457;52.002;5.464;2023-03-16T05:26:02;101289.78;;;21.45;37.17
55187;BME280;55457;52.002;5.464;2023-03-16T05:28:27;101280.00;;;21.44;36.95
55187;BME280;55457;52.002;5.464;2023-03-16T05:30:53;101289.22;;;21.43;36.82
55187;BME280;55457;52.002;5.464;2023-03-16T05:33:18;101285.44;;;21.44;37.06
55187;BME280;55457;52.002;5.464;2023-03-16T05:35:45;101280.00;;;21.44;36.84
55187;BME280;55457;52.002;5.464;2023-03-16T05:38:10;101274.59;;;21.44;36.86
55187;BME280;55457;52.002;5.464;2023-03-16T05:40:37;101273.75;;;21.44;36.89
55187;BME280;55457;52.002;5.464;2023-03-16T05:43:02;101272.13;;;21.43;36.96
55187;BME280;55457;52.002;5.464;2023-03-16T05:45:28;101270.22;;;21.43;36.84
55187;BME280;55457;52.002;5.464;2023-03-16T05:47:54;101255.84;;;21.43;36.85
55187;BME280;55457;52.002;5.464;2023-03-16T05:50:19;101256.66;;;21.43;36.76
55187;BME280;55457;52.002;5.464;2023-03-16T05:52:44;101254.22;;;21.42;36.90
55187;BME280;55457;52.002;5.464;2023-03-16T05:55:10;101260.69;;;21.41;36.75
55187;BME280;55457;52.002;5.464;2023-03-16T05:57:36;101260.69;;;21.41;36.95
55187;BME280;55457;52.002;5.464;2023-03-16T06:00:02;101264.22;;;21.41;36.93
55187;BME280;55457;52.002;5.464;2023-03-16T06:02:47;101267.97;;;21.40;37.17
55187;BME280;55457;52.002;5.464;2023-03-16T06:05:13;101264.44;;;21.40;36.88
55187;BME280;55457;52.002;5.464;2023-03-16T06:07:39;101257.13;;;21.40;36.97
55187;BME280;55457;52.002;5.464;2023-03-16T06:10:04;101257.13;;;21.40;36.93
55187;BME280;55457;52.002;5.464;2023-03-16T06:12:30;101256.31;;;21.40;37.11
55187;BME280;55457;52.002;5.464;2023-03-16T06:14:55;101259.28;;;21.38;36.93
55187;BME280;55457;52.002;5.464;2023-03-16T06:17:21;101256.56;;;21.38;36.90
55187;BME280;55457;52.002;5.464;2023-03-16T06:19:46;101257.38;;;21.39;36.91
55187;BME280;55457;52.002;5.464;2023-03-16T06:22:11;101253.03;;;21.38;36.97
55187;BME280;55457;52.002;5.464;2023-03-16T06:24:36;101248.44;;;21.38;36.89
55187;BME280;55457;52.002;5.464;2023-03-16T06:27:01;101240.56;;;21.36;36.86
55187;BME280;55457;52.002;5.464;2023-03-16T06:29:27;101240.56;;;21.36;36.96
55187;BME280;55457;52.002;5.464;2023-03-16T06:31:52;101241.38;;;21.37;36.94
55187;BME280;55457;52.002;5.464;2023-03-16T06:34:18;101241.38;;;21.37;36.90
55187;BME280;55457;52.002;5.464;2023-03-16T06:36:43;101239.72;;;21.36;36.84
55187;BME280;55457;52.002;5.464;2023-03-16T06:39:09;101236.78;;;21.38;36.90
55187;BME280;55457;52.002;5.464;2023-03-16T06:41:34;101241.38;;;21.37;37.00
55187;BME280;55457;52.002;5.464;2023-03-16T06:43:59;101245.16;;;21.36;36.97
55187;BME280;55457;52.002;5.464;2023-03-16T06:46:25;101227.22;;;21.35;36.86
55187;BME280;55457;52.002;5.464;2023-03-16T06:48:50;101235.13;;;21.36;36.85
55187;BME280;55457;52.002;5.464;2023-03-16T06:51:15;101233.25;;;21.37;36.96
55187;BME280;55457;52.002;5.464;2023-03-16T06:53:40;101233.50;;;21.35;37.02
55187;BME280;55457;52.002;5.464;2023-03-16T06:56:06;101227.81;;;21.37;36.85
55187;BME280;55457;52.002;5.464;2023-03-16T06:58:31;101227.00;;;21.36;36.81
55187;BME280;55457;52.002;5.464;2023-03-16T07:00:59;101226.19;;;21.36;36.85
55187;BME280;55457;52.002;5.464;2023-03-16T07:03:24;101225.94;;;21.38;37.01
55187;BME280;55457;52.002;5.464;2023-03-16T07:05:49;101227.81;;;21.37;37.03
55187;BME280;55457;52.002;5.464;2023-03-16T07:08:15;101218.84;;;21.36;36.84
55187;BME280;55457;52.002;5.464;2023-03-16T07:10:40;101219.69;;;21.37;36.71
55187;BME280;55457;52.002;5.464;2023-03-16T07:13:06;101214.25;;;21.37;36.84
55187;BME280;55457;52.002;5.464;2023-03-16T07:15:31;101213.44;;;21.36;36.88
55187;BME280;55457;52.002;5.464;2023-03-16T07:17:56;101206.13;;;21.37;36.81
55187;BME280;55457;52.002;5.464;2023-03-16T07:20:21;101211.78;;;21.35;36.94
55187;BME280;55457;52.002;5.464;2023-03-16T07:22:47;101212.63;;;21.36;36.85
55187;BME280;55457;52.002;5.464;2023-03-16T07:25:12;101213.44;;;21.36;36.97
55187;BME280;55457;52.002;5.464;2023-03-16T07:27:38;101215.31;;;21.36;36.72
55187;BME280;55457;52.002;5.464;2023-03-16T07:30:05;101215.31;;;21.36;36.94
55187;BME280;55457;52.002;5.464;2023-03-16T07:32:30;101205.53;;;21.35;36.94
55187;BME280;55457;52.002;5.464;2023-03-16T07:34:56;101209.91;;;21.36;36.81
55187;BME280;55457;52.002;5.464;2023-03-16T07:37:23;101206.38;;;21.35;36.73
55187;BME280;55457;52.002;5.464;2023-03-16T07:39:48;101213.09;;;21.33;36.71
55187;BME280;55457;52.002;5.464;2023-03-16T07:42:13;101213.66;;;21.35;36.74
55187;BME280;55457;52.002;5.464;2023-03-16T07:44:38;101213.34;;;21.31;36.99
55187;BME280;55457;52.002;5.464;2023-03-16T07:47:03;101212.84;;;21.34;36.96
55187;BME280;55457;52.002;5.464;2023-03-16T07:49:29;101213.91;;;21.33;36.75
55187;BME280;55457;52.002;5.464;2023-03-16T07:51:54;101221.22;;;21.33;36.86
55187;BME280;55457;52.002;5.464;2023-03-16T07:54:19;101231.50;;;21.31;36.88
55187;BME280;55457;52.002;5.464;2023-03-16T07:56:44;101222.53;;;21.30;36.76
55187;BME280;55457;52.002;5.464;2023-03-16T07:59:09;101226.06;;;21.31;36.87
55187;BME280;55457;52.002;5.464;2023-03-16T08:01:36;101215.41;;;21.29;36.74
55187;BME280;55457;52.002;5.464;2023-03-16T08:04:01;101219.00;;;21.30;37.10
55187;BME280;55457;52.002;5.464;2023-03-16T08:06:27;101210.25;;;21.28;37.09
55187;BME280;55457;52.002;5.464;2023-03-16T08:08:52;101205.31;;;21.25;37.61
55187;BME280;55457;52.002;5.464;2023-03-16T08:11:17;101202.00;;;21.23;37.50
55187;BME280;55457;52.002;5.464;2023-03-16T08:13:48;101193.31;;;21.21;37.55
55187;BME280;55457;52.002;5.464;2023-03-16T08:16:14;101188.97;;;21.20;37.53
55187;BME280;55457;52.002;5.464;2023-03-16T08:18:40;101191.88;;;21.18;37.34
55187;BME280;55457;52.002;5.464;2023-03-16T08:21:06;101196.22;;;21.19;37.40
55187;BME280;55457;52.002;5.464;2023-03-16T08:23:32;101188.09;;;21.19;37.26
55187;BME280;55457;52.002;5.464;2023-03-16T08:25:57;101188.34;;;21.18;37.29
55187;BME280;55457;52.002;5.464;2023-03-16T08:28:23;101191.66;;;21.20;37.26
55187;BME280;55457;52.002;5.464;2023-03-16T08:30:51;101195.41;;;21.19;37.21
55187;BME280;55457;52.002;5.464;2023-03-16T08:33:16;101195.41;;;21.19;37.42
55187;BME280;55457;52.002;5.464;2023-03-16T08:35:43;101198.13;;;21.19;37.17
55187;BME280;55457;52.002;5.464;2023-03-16T08:38:09;101204.63;;;21.18;37.24
55187;BME280;55457;52.002;5.464;2023-03-16T08:40:35;101207.31;;;21.18;37.16
55187;BME280;55457;52.002;5.464;2023-03-16T08:43:01;101208.97;;;21.19;37.19
55187;BME280;55457;52.002;5.464;2023-03-16T08:45:27;101217.09;;;21.19;37.17
55187;BME280;55457;52.002;5.464;2023-03-16T08:47:54;101212.75;;;21.18;37.28
55187;BME280;55457;52.002;5.464;2023-03-16T08:50:19;101201.09;;;21.17;37.09
55187;BME280;55457;52.002;5.464;2023-03-16T08:52:45;101199.19;;;21.18;37.28
55187;BME280;55457;52.002;5.464;2023-03-16T08:55:10;101196.72;;;21.16;37.44
55187;BME280;55457;52.002;5.464;2023-03-16T08:57:37;101199.44;;;21.16;37.20
55187;BME280;55457;52.002;5.464;2023-03-16T09:00:03;101192.38;;;21.15;37.36
55187;BME280;55457;52.002;5.464;2023-03-16T09:02:36;101193.41;;;21.14;37.12
55187;BME280;55457;52.002;5.464;2023-03-16T09:05:02;101188.84;;;21.15;37.10
55187;BME280;55457;52.002;5.464;2023-03-16T09:07:28;101180.72;;;21.15;37.07
55187;BME280;55457;52.002;5.464;2023-03-16T09:09:54;101176.34;;;21.14;37.18
55187;BME280;55457;52.002;5.464;2023-03-16T09:12:19;101176.34;;;21.14;36.96
55187;BME280;55457;52.002;5.464;2023-03-16T09:14:46;101184.47;;;21.14;37.11
55187;BME280;55457;52.002;5.464;2023-03-16T09:17:13;101179.88;;;21.14;37.10
55187;BME280;55457;52.002;5.464;2023-03-16T09:19:38;101179.31;;;21.12;37.04
55187;BME280;55457;52.002;5.464;2023-03-16T09:22:04;101184.72;;;21.12;36.99
55187;BME280;55457;52.002;5.464;2023-03-16T09:24:30;101180.94;;;21.13;36.89
55187;BME280;55457;52.002;5.464;2023-03-16T09:26:56;101194.50;;;21.13;36.76
55187;BME280;55457;52.002;5.464;2023-03-16T09:29:21;101185.53;;;21.13;36.81
55187;BME280;55457;52.002;5.464;2023-03-16T09:31:47;101173.88;;;21.12;36.99
55187;BME280;55457;52.002;5.464;2023-03-16T09:34:12;101186.34;;;21.13;36.67
55187;BME280;55457;52.002;5.464;2023-03-16T09:36:38;101175.53;;;21.13;36.83
55187;BME280;55457;52.002;5.464;2023-03-16T09:39:03;101179.06;;;21.14;36.61
55187;BME280;55457;52.002;5.464;2023-03-16T09:46:33;101163.38;;;21.16;36.51
55187;BME280;55457;52.002;5.464;2023-03-16T09:49:00;101175.06;;;21.16;36.69
55187;BME280;55457;52.002;5.464;2023-03-16T09:53:52;101169.13;;;21.19;36.51
55187;BME280;55457;52.002;5.464;2023-03-16T09:56:32;101168.91;;;21.21;36.53
55187;BME280;55457;52.002;5.464;2023-03-16T09:58:59;101168.41;;;21.24;36.58
55187;BME280;55457;52.002;5.464;2023-03-16T10:06:29;101161.00;;;21.31;36.63
55187;BME280;55457;52.002;5.464;2023-03-16T10:13:54;101154.09;;;21.40;36.56
55187;BME280;55457;52.002;5.464;2023-03-16T10:16:24;101147.41;;;21.43;36.55
55187;BME280;55457;52.002;5.464;2023-03-16T10:18:55;101139.00;;;21.44;36.40
55187;BME280;55457;52.002;5.464;2023-03-16T10:21:22;101148.78;;;21.45;36.25
55187;BME280;55457;52.002;5.464;2023-03-16T10:23:48;101144.06;;;21.52;36.33
55187;BME280;55457;52.002;5.464;2023-03-16T10:26:23;101153.91;;;21.58;36.28
55187;BME280;55457;52.002;5.464;2023-03-16T10:28:50;101140.44;;;21.63;36.21
55187;BME280;55457;52.002;5.464;2023-03-16T10:31:17;101137.00;;;21.68;36.35
55187;BME280;55457;52.002;5.464;2023-03-16T10:33:44;101134.94;;;21.75;36.15
55187;BME280;55457;52.002;5.464;2023-03-16T10:43:42;101124.25;;;22.02;36.27
55187;BME280;55457;52.002;5.464;2023-03-16T10:46:09;101116.19;;;22.07;36.14
55187;BME280;55457;52.002;5.464;2023-03-16T10:48:36;101116.78;;;22.09;35.96
55187;BME280;55457;52.002;5.464;2023-03-16T10:51:02;101097.78;;;22.09;35.84
55187;BME280;55457;52.002;5.464;2023-03-16T10:53:30;101113.03;;;22.10;35.95
55187;BME280;55457;52.002;5.464;2023-03-16T10:55:59;101115.75;;;22.10;36.00
55187;BME280;55457;52.002;5.464;2023-03-16T10:58:29;101104.28;;;22.08;35.93
55187;BME280;55457;52.002;5.464;2023-03-16T11:00:54;101106.66;;;22.05;35.97
55187;BME280;55457;52.002;5.464;2023-03-16T11:03:21;101104.22;;;22.03;35.90
55187;BME280;55457;52.002;5.464;2023-03-16T11:05:55;101107.41;;;22.00;35.94
55187;BME280;55457;52.002;5.464;2023-03-16T11:08:23;101101.41;;;21.98;36.11
55187;BME280;55457;52.002;5.464;2023-03-16T11:10:54;101102.72;;;21.96;35.90
55187;BME280;55457;52.002;5.464;2023-03-16T11:13:21;101094.50;;;21.91;35.93
55187;BME280;55457;52.002;5.464;2023-03-16T11:15:50;101102.38;;;21.92;35.96
55187;BME280;55457;52.002;5.464;2023-03-16T11:18:23;101098.28;;;21.89;36.05
55187;BME280;55457;52.002;5.464;2023-03-16T11:20:51;101090.41;;;21.88;35.94
55187;BME280;55457;52.002;5.464;2023-03-16T11:23:18;101083.31;;;21.87;36.00
55187;BME280;55457;52.002;5.464;2023-03-16T11:25:46;101072.97;;;21.84;36.00
55187;BME280;55457;52.002;5.464;2023-03-16T11:28:36;101062.13;;;21.84;35.91
55187;BME280;55457;52.002;5.464;2023-03-16T11:33:48;101056.69;;;21.84;35.74
55187;BME280;55457;52.002;5.464;2023-03-16T11:41:07;101062.13;;;21.84;35.80
55187;BME280;55457;52.002;5.464;2023-03-16T11:51:31;101059.97;;;21.86;35.97
55187;BME280;55457;52.002;5.464;2023-03-16T11:56:58;101045.66;;;21.91;36.22
55187;BME280;55457;52.002;5.464;2023-03-16T12:01:56;101032.69;;;21.93;36.22
55187;BME280;55457;52.002;5.464;2023-03-16T12:12:00;101040.72;;;22.04;36.12
55187;BME280;55457;52.002;5.464;2023-03-16T12:14:32;101027.22;;;22.09;36.17
55187;BME280;55457;52.002;5.464;2023-03-16T12:17:02;101024.59;;;22.14;36.28
55187;BME280;55457;52.002;5.464;2023-03-16T12:22:02;101014.19;;;22.28;36.05
55187;BME280;55457;52.002;5.464;2023-03-16T12:24:33;101003.16;;;22.35;35.85
55187;BME280;55457;52.002;5.464;2023-03-16T12:27:02;101007.56;;;22.41;36.01
55187;BME280;55457;52.002;5.464;2023-03-16T12:45:21;100990.31;;;22.52;35.39
55187;BME280;55457;52.002;5.464;2023-03-16T12:48:50;100972.94;;;22.53;35.38
55187;BME280;55457;52.002;5.464;2023-03-16T12:50:50;100973.47;;;22.50;35.17
55187;BME280;55457;52.002;5.464;2023-03-16T12:53:58;100980.22;;;22.48;35.31
55187;BME280;55457;52.002;5.464;2023-03-16T12:56:08;100971.50;;;22.46;35.47
55187;BME280;55457;52.002;5.464;2023-03-16T12:58:34;100955.22;;;22.46;35.32
55187;BME280;55457;52.002;5.464;2023-03-16T13:00:59;100937.03;;;22.46;35.14
55187;BME280;55457;52.002;5.464;2023-03-16T13:03:25;100945.66;;;22.43;35.18
55187;BME280;55457;52.002;5.464;2023-03-16T13:05:55;100944.09;;;22.47;35.09
55187;BME280;55457;52.002;5.464;2023-03-16T13:08:22;100936.56;;;22.54;34.93
55187;BME280;55457;52.002;5.464;2023-03-16T13:13:29;100928.00;;;22.67;35.02
55187;BME280;55457;52.002;5.464;2023-03-16T13:16:01;100926.72;;;22.75;35.12
55187;BME280;55457;52.002;5.464;2023-03-16T13:18:36;100928.97;;;22.83;35.03
55187;BME280;55457;52.002;5.464;2023-03-16T13:21:13;100924.97;;;22.91;34.66
55187;BME280;55457;52.002;5.464;2023-03-16T13:26:15;100928.06;;;23.00;34.73
55187;BME280;55457;52.002;5.464;2023-03-16T13:28:42;100939.25;;;23.03;34.44
55187;BME280;55457;52.002;5.464;2023-03-16T13:31:21;100921.56;;;23.06;34.47
55187;BME280;55457;52.002;5.464;2023-03-16T13:33:48;100914.28;;;23.11;34.42
55187;BME280;55457;52.002;5.464;2023-03-16T13:36:16;100912.69;;;23.15;34.44
55187;BME280;55457;52.002;5.464;2023-03-16T13:38:41;100908.88;;;23.16;34.57
55187;BME280;55457;52.002;5.464;2023-03-16T13:41:10;100908.06;;;23.16;34.42
55187;BME280;55457;52.002;5.464;2023-03-16T13:43:40;100899.09;;;23.15;34.31
55187;BME280;55457;52.002;5.464;2023-03-16T13:46:15;100892.03;;;23.14;34.51
55187;BME280;55457;52.002;5.464;2023-03-16T13:48:41;100885.50;;;23.15;34.32
55187;BME280;55457;52.002;5.464;2023-03-16T13:51:11;100887.97;;;23.22;34.30
55187;BME280;55457;52.002;5.464;2023-03-16T13:53:39;100884.50;;;23.27;34.32
55187;BME280;55457;52.002;5.464;2023-03-16T13:56:04;100873.09;;;23.30;34.39
55187;BME280;55457;52.002;5.464;2023-03-16T13:58:32;100878.81;;;23.33;34.23
55187;BME280;55457;52.002;5.464;2023-03-16T14:00:58;100881.56;;;23.38;34.06
55187;BME280;55457;52.002;5.464;2023-03-16T14:03:29;100875.59;;;23.41;34.08
55187;BME280;55457;52.002;5.464;2023-03-16T14:05:56;100871.56;;;23.44;34.02
55187;BME280;55457;52.002;5.464;2023-03-16T14:08:22;100865.56;;;23.47;33.73
55187;BME280;55457;52.002;5.464;2023-03-16T14:10:48;100865.06;;;23.50;33.85
55187;BME280;55457;52.002;5.464;2023-03-16T14:15:53;100868.34;;;23.57;33.79
55187;BME280;55457;52.002;5.464;2023-03-16T14:18:21;100859.09;;;23.58;33.80
55187;BME280;55457;52.002;5.464;2023-03-16T14:20:50;100860.50;;;23.61;34.03
55187;BME280;55457;52.002;5.464;2023-03-16T14:23:18;100855.63;;;23.63;33.87